Miami Beach, Florida
Current Conditions -  °F | °C
As of 12:56 PM on Thursday 27 Nov 2014 (Local Time) from KMIA Reporting Station
Few Clouds Few Clouds  
Wind Chill: 22°   Ceiling: Unl
Heat Index: 22°   Visibility: 10mi
Dew Point:   Wind: 12mph
Humidity: 30%   Direction: 350°N
Pressure: 30.19"   Gusts: 21mph
Location:  25.81°N, 80.13°W
Report Text: KMIA 271756Z COR 35010G18KT 10SM FEW150 22/03 A3019 RMK AO2 T02170033 $
Loading
Personal Weather Stations






























Interactive Weather Map New forecast layout! Learn more

10-Day Weather Forecast

Advertisements
Track Severe Weather on mobile